createdAt,value
2019-03-24T00:00:00.156Z,16.47
2019-03-24T00:02:34.571Z,14.73
2019-03-24T00:05:06.836Z,20.03
2019-03-24T00:07:39.499Z,15.20
2019-03-24T00:10:10.987Z,14.57
2019-03-24T00:12:49.990Z,12.40
2019-03-24T00:15:26.488Z,14.80
2019-03-24T00:17:56.433Z,15.23
2019-03-24T00:20:28.455Z,15.23
2019-03-24T00:23:02.997Z,14.43
2019-03-24T00:25:35.073Z,15.70
2019-03-24T00:28:08.857Z,13.93
2019-03-24T00:30:43.455Z,12.90
2019-03-24T00:33:15.747Z,13.07
2019-03-24T00:35:48.489Z,12.80
2019-03-24T00:38:20.851Z,12.93
2019-03-24T00:40:52.989Z,12.73
2019-03-24T00:43:26.233Z,14.37
2019-03-24T00:45:58.312Z,11.77
2019-03-24T00:48:32.227Z,11.23
2019-03-24T00:51:04.705Z,11.50
2019-03-24T00:53:36.883Z,11.03
2019-03-24T00:56:08.896Z,10.33
2019-03-24T00:58:42.499Z,9.47
2019-03-24T01:01:14.766Z,9.50
2019-03-24T01:03:46.861Z,7.97
2019-03-24T01:06:18.922Z,8.33
2019-03-24T01:08:51.084Z,8.07
2019-03-24T01:11:23.244Z,8.33
2019-03-24T01:14:04.445Z,5.07
2019-03-24T01:16:36.544Z,7.00
2019-03-24T01:19:08.791Z,5.63
2019-03-24T01:21:41.131Z,6.07
2019-03-24T01:24:13.363Z,5.83
2019-03-24T01:26:45.613Z,5.27
2019-03-24T01:29:17.655Z,6.97
2019-03-24T01:31:52.379Z,6.17
2019-03-24T01:34:24.831Z,6.17
2019-03-24T01:36:56.698Z,6.67
2019-03-24T01:39:29.027Z,6.03
2019-03-24T01:42:01.862Z,8.90
2019-03-24T01:44:34.190Z,7.40
2019-03-24T01:47:06.728Z,5.07
2019-03-24T01:49:40.005Z,8.10
2019-03-24T01:52:12.053Z,8.13
2019-03-24T01:54:45.625Z,6.50
2019-03-24T01:57:19.801Z,5.53
2019-03-24T01:59:51.884Z,7.93
2019-03-24T02:02:23.909Z,5.07
2019-03-24T02:04:55.863Z,7.50
2019-03-24T02:07:29.045Z,6.30
2019-03-24T02:10:00.757Z,6.10
2019-03-24T02:12:32.828Z,6.30
2019-03-24T02:15:06.847Z,7.00
2019-03-24T02:17:38.768Z,7.90
2019-03-24T02:20:10.747Z,7.10
2019-03-24T02:22:42.880Z,7.67
2019-03-24T02:25:14.805Z,7.57
2019-03-24T02:27:47.074Z,7.30
2019-03-24T02:30:21.508Z,8.23
2019-03-24T02:32:52.835Z,8.20
2019-03-24T02:35:24.931Z,8.10
2019-03-24T02:37:57.926Z,9.33
2019-03-24T02:40:30.084Z,7.47
2019-03-24T02:43:02.628Z,6.70
2019-03-24T02:45:34.653Z,9.43
2019-03-24T02:48:07.942Z,8.80
2019-03-24T02:50:39.883Z,10.73
2019-03-24T02:53:11.853Z,9.50
2019-03-24T02:55:43.969Z,9.20
2019-03-24T02:58:16.249Z,9.07
2019-03-24T03:00:48.291Z,9.63
2019-03-24T03:03:21.690Z,10.07
2019-03-24T03:05:53.580Z,6.90
2019-03-24T03:08:25.920Z,7.97
2019-03-24T03:10:58.000Z,9.20
2019-03-24T03:13:30.277Z,11.20
2019-03-24T03:16:02.264Z,11.20
2019-03-24T03:18:34.175Z,12.67
2019-03-24T03:21:06.459Z,9.90
2019-03-24T03:23:38.948Z,11.97
2019-03-24T03:26:11.043Z,8.47
2019-03-24T03:28:43.289Z,11.30
2019-03-24T03:31:15.497Z,13.33
2019-03-24T03:33:47.592Z,10.27
2019-03-24T03:36:19.668Z,12.90
2019-03-24T03:38:51.630Z,13.97
2019-03-24T03:41:24.328Z,12.83
2019-03-24T03:43:56.758Z,14.63
2019-03-24T03:46:30.035Z,14.37
2019-03-24T03:49:02.111Z,13.47
2019-03-24T03:51:34.168Z,12.33
2019-03-24T03:54:06.227Z,14.47
2019-03-24T03:56:38.859Z,15.10
2019-03-24T03:59:10.983Z,14.50
2019-03-24T04:01:43.391Z,14.20
2019-03-24T04:04:15.302Z,11.03
2019-03-24T04:06:47.451Z,12.93
2019-03-24T04:09:24.267Z,12.20
2019-03-24T04:11:58.104Z,14.00
2019-03-24T04:14:39.690Z,12.63
2019-03-24T04:17:11.805Z,14.37
2019-03-24T04:19:44.028Z,13.47
2019-03-24T04:22:16.415Z,9.80
2019-03-24T04:24:48.345Z,12.10
2019-03-24T04:27:20.329Z,8.10
2019-03-24T04:29:52.307Z,14.27
2019-03-24T04:32:25.573Z,11.90
2019-03-24T04:34:57.625Z,7.27
2019-03-24T04:37:32.850Z,12.90
2019-03-24T04:40:05.928Z,12.83
2019-03-24T04:42:37.622Z,14.30
2019-03-24T04:45:10.171Z,12.87
2019-03-24T04:47:42.444Z,11.10
2019-03-24T04:50:14.653Z,12.83
2019-03-24T04:52:46.691Z,12.90
2019-03-24T04:55:18.636Z,12.40
2019-03-24T04:57:50.599Z,12.07
2019-03-24T05:00:35.156Z,11.60
2019-03-24T05:03:07.048Z,11.97
2019-03-24T05:05:39.201Z,12.10
2019-03-24T05:08:13.923Z,10.53
2019-03-24T05:10:46.084Z,10.47
2019-03-24T05:13:18.054Z,12.63
2019-03-24T05:15:50.519Z,10.87
2019-03-24T05:18:22.426Z,11.70
2019-03-24T05:20:54.644Z,10.67
2019-03-24T05:23:27.677Z,11.37
2019-03-24T05:26:02.003Z,10.60
2019-03-24T05:28:48.652Z,10.80
2019-03-24T05:31:20.923Z,11.77
2019-03-24T05:33:53.982Z,11.00
2019-03-24T05:36:26.428Z,11.93
2019-03-24T05:38:58.940Z,10.33
2019-03-24T05:41:31.196Z,11.27
2019-03-24T05:44:03.652Z,11.87
2019-03-24T05:46:35.729Z,12.03
2019-03-24T05:49:07.975Z,13.37
2019-03-24T05:51:41.417Z,13.17
2019-03-24T05:54:13.494Z,12.47
2019-03-24T05:56:47.307Z,12.13
2019-03-24T05:59:19.364Z,11.50
2019-03-24T06:01:51.726Z,11.40
2019-03-24T06:04:23.837Z,12.10
2019-03-24T06:06:56.892Z,11.27
2019-03-24T06:09:28.963Z,10.60
2019-03-24T06:12:01.167Z,9.53
2019-03-24T06:14:33.374Z,10.20
2019-03-24T06:17:05.796Z,10.57
2019-03-24T06:19:38.921Z,10.47
2019-03-24T06:22:13.733Z,10.57
2019-03-24T06:24:48.730Z,8.97
2019-03-24T06:27:23.790Z,8.53
2019-03-24T06:29:56.430Z,9.70
2019-03-24T06:32:30.964Z,8.00
2019-03-24T06:35:04.962Z,9.50
2019-03-24T06:37:39.578Z,8.83
2019-03-24T06:40:11.674Z,8.97
2019-03-24T06:42:43.758Z,9.37
2019-03-24T06:45:15.946Z,9.67
2019-03-24T06:47:57.403Z,10.30
2019-03-24T06:50:24.176Z,9.57
2019-03-24T06:53:00.330Z,6.33
2019-03-24T06:55:32.602Z,7.47
2019-03-24T06:58:05.167Z,7.00
2019-03-24T07:00:37.457Z,7.70
2019-03-24T07:03:09.664Z,8.30
2019-03-24T07:05:43.334Z,7.40
2019-03-24T07:08:15.529Z,7.07
2019-03-24T07:10:47.612Z,9.17
2019-03-24T07:13:19.918Z,9.57
2019-03-24T07:15:56.719Z,9.10
2019-03-24T07:18:30.735Z,7.90
2019-03-24T07:21:06.554Z,8.50
2019-03-24T07:23:38.955Z,8.67
2019-03-24T07:26:10.865Z,8.93
2019-03-24T07:28:43.006Z,8.93
2019-03-24T07:31:18.289Z,9.47
2019-03-24T07:33:50.388Z,8.30
2019-03-24T07:36:24.056Z,6.63
2019-03-24T07:38:56.644Z,9.47
2019-03-24T07:41:30.755Z,9.80
2019-03-24T07:44:02.878Z,9.43
2019-03-24T07:46:34.892Z,9.03
2019-03-24T07:49:07.388Z,9.63
2019-03-24T07:51:39.366Z,8.23
2019-03-24T07:54:11.433Z,7.13
2019-03-24T07:56:46.260Z,8.73
2019-03-24T07:59:20.654Z,10.53
2019-03-24T08:02:02.771Z,8.87
2019-03-24T08:04:37.848Z,8.70
2019-03-24T08:07:10.260Z,7.97
2019-03-24T08:09:43.580Z,8.90
2019-03-24T08:12:15.683Z,8.37
2019-03-24T08:14:48.023Z,8.77
2019-03-24T08:17:26.597Z,9.87
2019-03-24T08:20:00.109Z,9.67
2019-03-24T08:22:34.462Z,7.10
2019-03-24T08:25:06.640Z,8.80
2019-03-24T08:27:40.632Z,8.40
2019-03-24T08:30:12.929Z,6.80
2019-03-24T08:32:49.432Z,8.67
2019-03-24T08:35:21.775Z,6.47
2019-03-24T08:37:53.702Z,6.77
2019-03-24T08:40:28.131Z,7.00
2019-03-24T08:43:01.718Z,6.57
2019-03-24T08:45:34.370Z,6.87
2019-03-24T08:48:08.588Z,6.57
2019-03-24T08:50:40.706Z,6.80
2019-03-24T08:53:13.160Z,7.13
2019-03-24T08:55:45.130Z,7.57
2019-03-24T08:58:17.844Z,6.57
2019-03-24T09:00:50.004Z,7.70
2019-03-24T09:03:22.102Z,6.97
2019-03-24T09:05:56.110Z,7.30
2019-03-24T09:08:28.186Z,6.83
2019-03-24T09:11:01.752Z,7.10
2019-03-24T09:13:33.866Z,5.80
2019-03-24T09:16:06.106Z,7.20
2019-03-24T09:18:51.697Z,6.53
2019-03-24T09:21:14.857Z,7.33
2019-03-24T09:23:47.062Z,9.17
2019-03-24T09:26:19.073Z,5.50
2019-03-24T09:28:51.562Z,6.80
2019-03-24T09:31:24.352Z,8.07
2019-03-24T09:33:56.482Z,6.10
2019-03-24T09:36:28.986Z,6.67
2019-03-24T09:39:01.153Z,6.83
2019-03-24T09:41:35.427Z,10.47
2019-03-24T09:44:09.923Z,7.70
2019-03-24T09:46:42.417Z,7.67
2019-03-24T09:49:18.296Z,9.03
2019-03-24T09:51:56.405Z,7.43
2019-03-24T09:54:31.048Z,6.73
2019-03-24T09:57:07.310Z,8.23
2019-03-24T09:59:39.796Z,7.47
2019-03-24T10:02:12.759Z,8.10
2019-03-24T10:04:45.015Z,7.40
2019-03-24T10:07:19.090Z,9.50
2019-03-24T10:09:51.187Z,9.57
2019-03-24T10:12:28.354Z,7.20
2019-03-24T10:15:00.816Z,7.60
2019-03-24T10:17:34.519Z,6.70
2019-03-24T10:20:07.589Z,7.07
2019-03-24T10:22:40.255Z,5.90
2019-03-24T10:25:12.643Z,8.37
2019-03-24T10:27:45.938Z,6.37
2019-03-24T10:30:17.887Z,5.53
2019-03-24T10:32:49.964Z,6.60
2019-03-24T10:35:23.998Z,6.93
2019-03-24T10:37:56.182Z,6.80
2019-03-24T10:40:39.467Z,6.33
2019-03-24T10:43:12.065Z,19.77
2019-03-24T10:45:47.509Z,4.87
2019-03-24T10:48:19.782Z,5.53
2019-03-24T10:50:52.179Z,6.60
2019-03-24T10:53:25.493Z,6.27
2019-03-24T10:55:57.658Z,5.33
2019-03-24T10:58:29.822Z,5.00
2019-03-24T11:01:02.279Z,6.00
2019-03-24T11:03:35.108Z,6.13
2019-03-24T11:06:07.266Z,5.10
2019-03-24T11:08:40.254Z,5.33
2019-03-24T11:11:12.940Z,4.90
2019-03-24T11:13:45.140Z,8.47
2019-03-24T11:16:17.469Z,5.37
2019-03-24T11:18:52.769Z,4.90
2019-03-24T11:21:25.430Z,5.73
2019-03-24T11:23:57.628Z,5.60
2019-03-24T11:26:32.188Z,5.43
2019-03-24T11:29:08.146Z,4.87
2019-03-24T11:31:40.778Z,8.00
2019-03-24T11:34:12.969Z,5.90
2019-03-24T11:36:45.007Z,5.10
2019-03-24T11:39:16.988Z,5.30
2019-03-24T11:41:49.214Z,7.57
2019-03-24T11:44:21.743Z,5.37
2019-03-24T11:46:54.512Z,6.23
2019-03-24T11:49:28.188Z,5.53
2019-03-24T11:52:00.432Z,5.10
2019-03-24T11:54:32.509Z,5.77
2019-03-24T11:57:04.570Z,5.93
2019-03-24T11:59:36.631Z,4.97
2019-03-24T12:02:08.892Z,5.50
2019-03-24T12:04:40.853Z,4.77
2019-03-24T12:07:13.083Z,7.73
2019-03-24T12:09:45.727Z,4.30
2019-03-24T12:12:17.828Z,5.30
2019-03-24T12:14:50.022Z,4.87
2019-03-24T12:17:22.344Z,6.20
2019-03-24T12:19:57.468Z,3.07
2019-03-24T12:22:30.196Z,4.40
2019-03-24T12:25:03.392Z,5.03
2019-03-24T12:27:35.644Z,3.67
2019-03-24T12:30:09.887Z,2.47
2019-03-24T12:32:42.402Z,3.90
2019-03-24T12:35:15.130Z,3.87
2019-03-24T12:37:47.589Z,4.30
2019-03-24T12:40:19.865Z,3.57
2019-03-24T12:42:51.401Z,3.80
2019-03-24T12:45:23.679Z,6.70
2019-03-24T12:47:55.970Z,4.70
2019-03-24T12:50:31.992Z,4.10
2019-03-24T12:53:04.323Z,4.37
2019-03-24T12:55:37.232Z,2.63
2019-03-24T12:58:09.450Z,4.33
2019-03-24T13:00:41.984Z,3.67
2019-03-24T13:03:14.200Z,3.80
2019-03-24T13:05:46.764Z,3.77
2019-03-24T13:08:21.463Z,5.00
2019-03-24T13:10:53.941Z,3.00
2019-03-24T13:13:26.085Z,4.57
2019-03-24T13:15:58.623Z,3.63
2019-03-24T13:18:31.212Z,3.10
2019-03-24T13:21:03.704Z,4.33
2019-03-24T13:23:38.566Z,3.60
2019-03-24T13:26:11.061Z,3.53
2019-03-24T13:28:43.216Z,3.63
2019-03-24T13:31:15.930Z,4.20
2019-03-24T13:33:52.212Z,3.40
2019-03-24T13:36:27.064Z,3.70
2019-03-24T13:38:59.238Z,4.30
2019-03-24T13:41:32.383Z,3.60
2019-03-24T13:44:04.301Z,3.67
2019-03-24T13:46:38.464Z,3.00
2019-03-24T13:49:15.202Z,3.20
2019-03-24T13:51:47.442Z,4.10
2019-03-24T13:54:21.367Z,3.53
2019-03-24T13:56:53.790Z,2.80
2019-03-24T13:59:26.042Z,4.40
2019-03-24T14:01:59.162Z,3.00
2019-03-24T14:04:34.371Z,2.80
2019-03-24T14:07:07.026Z,3.83
2019-03-24T14:09:39.290Z,3.90
2019-03-24T14:12:11.560Z,3.67
2019-03-24T14:14:49.823Z,4.33
2019-03-24T14:17:23.622Z,4.10
2019-03-24T14:19:58.097Z,4.27
2019-03-24T14:22:30.544Z,4.10
2019-03-24T14:25:05.079Z,3.10
2019-03-24T14:27:37.301Z,3.93
2019-03-24T14:30:10.096Z,3.20
2019-03-24T14:32:43.818Z,3.13
2019-03-24T14:35:17.168Z,3.53
2019-03-24T14:37:51.352Z,5.63
2019-03-24T14:40:25.432Z,3.67
2019-03-24T14:42:57.357Z,3.20
2019-03-24T14:45:29.799Z,4.70
2019-03-24T14:48:02.560Z,3.60
2019-03-24T14:50:35.056Z,3.97
2019-03-24T14:53:07.210Z,3.67
2019-03-24T14:55:39.388Z,3.33
2019-03-24T14:58:13.205Z,3.83
2019-03-24T15:00:45.459Z,3.47
2019-03-24T15:03:27.547Z,5.13
2019-03-24T15:06:00.131Z,2.97
2019-03-24T15:08:34.137Z,2.33
2019-03-24T15:11:06.330Z,2.93
2019-03-24T15:13:38.322Z,3.43
2019-03-24T15:16:13.109Z,4.27
2019-03-24T15:18:44.916Z,3.10
2019-03-24T15:21:16.932Z,4.40
2019-03-24T15:23:50.722Z,3.17
2019-03-24T15:26:24.996Z,3.00
2019-03-24T15:28:57.023Z,2.77
2019-03-24T15:31:29.224Z,3.00
2019-03-24T15:34:01.657Z,2.90
2019-03-24T15:36:33.859Z,2.30
2019-03-24T15:39:08.094Z,2.40
2019-03-24T15:41:42.004Z,3.77
2019-03-24T15:44:14.008Z,5.47
2019-03-24T15:46:47.390Z,3.80
2019-03-24T15:49:28.400Z,3.53
2019-03-24T15:52:01.133Z,2.87
2019-03-24T15:54:33.961Z,3.47
2019-03-24T15:57:06.412Z,4.10
2019-03-24T15:59:38.978Z,4.30
2019-03-24T16:02:11.492Z,3.17
2019-03-24T16:04:43.504Z,3.07
2019-03-24T16:07:15.926Z,3.27
2019-03-24T16:09:50.068Z,3.77
2019-03-24T16:12:22.968Z,3.57
2019-03-24T16:14:55.100Z,3.80
2019-03-24T16:17:33.977Z,3.67
2019-03-24T16:20:06.312Z,3.13
2019-03-24T16:22:38.468Z,4.53
2019-03-24T16:25:10.997Z,4.10
2019-03-24T16:27:46.692Z,4.17
2019-03-24T16:30:19.806Z,4.23
2019-03-24T16:32:53.339Z,3.00
2019-03-24T16:35:27.704Z,4.17
2019-03-24T16:38:04.444Z,4.43
2019-03-24T16:40:36.610Z,5.47
2019-03-24T16:43:09.736Z,5.03
2019-03-24T16:46:02.667Z,3.83
2019-03-24T16:48:37.102Z,3.60
2019-03-24T16:51:09.186Z,4.40
2019-03-24T16:53:48.685Z,3.90
2019-03-24T16:56:24.010Z,3.90
2019-03-24T16:58:56.367Z,4.13
2019-03-24T17:01:28.443Z,3.77
2019-03-24T17:04:01.151Z,3.87
2019-03-24T17:06:35.634Z,4.57
2019-03-24T17:09:09.419Z,4.17
2019-03-24T17:11:42.150Z,4.30
2019-03-24T17:14:14.354Z,3.73
2019-03-24T17:16:47.818Z,3.70
2019-03-24T17:19:22.364Z,4.30
2019-03-24T17:21:59.426Z,4.10
2019-03-24T17:24:32.026Z,3.07
2019-03-24T17:27:04.452Z,3.43
2019-03-24T17:29:36.798Z,3.80
2019-03-24T17:32:09.328Z,3.37
2019-03-24T17:34:44.644Z,3.47
2019-03-24T17:37:17.000Z,4.73
2019-03-24T17:39:49.322Z,4.03
2019-03-24T17:42:22.070Z,3.90
2019-03-24T17:44:55.811Z,4.60
2019-03-24T17:47:29.803Z,4.43
2019-03-24T17:50:02.127Z,3.73
2019-03-24T17:52:34.414Z,4.00
2019-03-24T17:55:11.119Z,3.73
2019-03-24T17:57:45.390Z,5.10
2019-03-24T18:00:20.018Z,3.53
2019-03-24T18:02:52.180Z,4.20
2019-03-24T18:05:25.981Z,4.13
2019-03-24T18:08:01.692Z,4.67
2019-03-24T18:10:34.661Z,4.20
2019-03-24T18:13:06.799Z,5.20
2019-03-24T18:15:38.748Z,5.97
2019-03-24T18:18:10.482Z,4.60
2019-03-24T18:20:45.509Z,4.53
2019-03-24T18:23:18.606Z,5.00
2019-03-24T18:25:51.436Z,5.87
2019-03-24T18:28:27.084Z,4.40
2019-03-24T18:30:59.392Z,5.60
2019-03-24T18:33:31.988Z,12.63
2019-03-24T18:36:04.406Z,4.13
2019-03-24T18:38:36.593Z,4.40
2019-03-24T18:41:08.666Z,5.10
2019-03-24T18:43:41.292Z,4.30
2019-03-24T18:46:14.246Z,4.70
2019-03-24T18:48:46.588Z,4.37
2019-03-24T18:51:19.688Z,3.97
2019-03-24T18:53:55.487Z,4.80
2019-03-24T18:56:27.612Z,4.47
2019-03-24T18:59:00.048Z,3.87
2019-03-24T19:01:32.680Z,4.77
2019-03-24T19:04:07.096Z,5.43
2019-03-24T19:06:40.102Z,4.60
2019-03-24T19:09:16.044Z,5.23
2019-03-24T19:11:55.798Z,5.40
2019-03-24T19:14:40.096Z,4.07
2019-03-24T19:17:11.805Z,4.50
2019-03-24T19:19:43.900Z,5.40
2019-03-24T19:22:15.922Z,6.50
2019-03-24T19:24:49.359Z,5.70
2019-03-24T19:27:23.905Z,5.80
2019-03-24T19:29:57.816Z,4.43
2019-03-24T19:32:30.599Z,4.90
2019-03-24T19:35:07.620Z,5.07
2019-03-24T19:37:39.742Z,4.23
2019-03-24T19:40:42.368Z,5.63
2019-03-24T19:43:16.662Z,4.40
2019-03-24T19:45:48.866Z,6.23
2019-03-24T19:48:23.337Z,4.43
2019-03-24T19:50:57.288Z,7.20
2019-03-24T19:53:37.058Z,5.10
2019-03-24T19:56:09.142Z,6.37
2019-03-24T19:58:42.942Z,4.43
2019-03-24T20:01:15.170Z,10.20
2019-03-24T20:03:49.702Z,4.17
2019-03-24T20:06:22.682Z,4.80
2019-03-24T20:08:55.817Z,4.63
2019-03-24T20:11:27.971Z,4.33
2019-03-24T20:14:01.730Z,4.00
2019-03-24T20:16:33.801Z,4.00
2019-03-24T20:19:07.628Z,4.70
2019-03-24T20:21:40.010Z,5.00
2019-03-24T20:24:12.734Z,5.47
2019-03-24T20:26:48.320Z,4.33
2019-03-24T20:29:24.268Z,4.83
2019-03-24T20:31:57.486Z,4.50
2019-03-24T20:34:32.820Z,4.93
2019-03-24T20:37:06.280Z,3.70
2019-03-24T20:39:38.739Z,4.77
2019-03-24T20:42:10.818Z,6.23
2019-03-24T20:44:43.494Z,5.33
2019-03-24T20:47:15.810Z,4.73
2019-03-24T20:49:47.930Z,4.33
2019-03-24T20:52:20.934Z,5.17
2019-03-24T20:54:53.200Z,5.13
2019-03-24T20:57:28.587Z,4.70
2019-03-24T21:00:02.104Z,4.70
2019-03-24T21:02:34.204Z,5.37
2019-03-24T21:05:06.959Z,5.13
2019-03-24T21:07:39.326Z,5.80
2019-03-24T21:10:11.566Z,6.77
2019-03-24T21:12:43.702Z,5.60
2019-03-24T21:15:15.998Z,4.70
2019-03-24T21:17:49.702Z,5.93
2019-03-24T21:20:21.784Z,21.63
2019-03-24T21:22:54.176Z,7.07
2019-03-24T21:25:26.322Z,7.83
2019-03-24T21:27:59.068Z,6.80
2019-03-24T21:30:49.312Z,6.40
2019-03-24T21:33:30.836Z,6.90
2019-03-24T21:36:03.637Z,5.50
2019-03-24T21:38:36.163Z,6.20
2019-03-24T21:41:08.594Z,7.10
2019-03-24T21:43:44.491Z,8.33
2019-03-24T21:46:18.531Z,5.90
2019-03-24T21:48:51.601Z,6.47
2019-03-24T21:51:24.307Z,6.40
2019-03-24T21:53:56.642Z,7.27
2019-03-24T21:56:29.150Z,6.33
2019-03-24T21:59:01.178Z,19.77
2019-03-24T22:01:33.509Z,8.53
2019-03-24T22:04:07.573Z,6.90
2019-03-24T22:06:39.692Z,5.93
2019-03-24T22:09:11.814Z,13.23
2019-03-24T22:11:43.956Z,8.53
2019-03-24T22:14:16.094Z,9.83
2019-03-24T22:16:50.645Z,8.17
2019-03-24T22:19:24.456Z,10.67
2019-03-24T22:21:56.550Z,10.40
2019-03-24T22:24:28.830Z,8.03
2019-03-24T22:27:02.208Z,7.53
2019-03-24T22:29:34.619Z,10.93
2019-03-24T22:32:08.174Z,31.47
2019-03-24T22:34:40.613Z,13.17
2019-03-24T22:37:15.977Z,11.43
2019-03-24T22:39:46.734Z,13.07
2019-03-24T22:42:20.539Z,11.20
2019-03-24T22:44:52.720Z,9.53
2019-03-24T22:47:28.314Z,9.37
2019-03-24T22:50:02.381Z,8.80
2019-03-24T22:52:34.708Z,14.27
2019-03-24T22:55:08.363Z,13.70
2019-03-24T22:57:40.483Z,16.23
2019-03-24T23:00:18.687Z,18.20
2019-03-24T23:02:50.850Z,16.97
2019-03-24T23:05:24.508Z,17.03
2019-03-24T23:07:58.846Z,16.53
2019-03-24T23:10:31.145Z,13.50
2019-03-24T23:13:03.507Z,13.77
2019-03-24T23:15:37.214Z,13.67
2019-03-24T23:18:09.366Z,15.33
2019-03-24T23:20:41.621Z,14.87
2019-03-24T23:23:13.902Z,15.73
2019-03-24T23:25:46.386Z,15.83
2019-03-24T23:28:18.637Z,16.20
2019-03-24T23:30:52.888Z,15.27
2019-03-24T23:33:25.268Z,16.50
2019-03-24T23:35:57.275Z,15.90
2019-03-24T23:38:29.592Z,15.83
2019-03-24T23:41:01.872Z,16.97
2019-03-24T23:43:34.090Z,16.53
2019-03-24T23:46:06.102Z,17.43
2019-03-24T23:48:37.848Z,18.80
2019-03-24T23:51:12.292Z,18.23
2019-03-24T23:53:44.815Z,18.47
2019-03-24T23:56:18.457Z,18.03
2019-03-24T23:58:50.694Z,17.47
